createdAt,value
2018-07-19T00:01:33.536Z,99.90
2018-07-19T00:04:03.088Z,99.90
2018-07-19T00:06:32.496Z,99.90
2018-07-19T00:09:01.888Z,99.90
2018-07-19T00:11:31.322Z,99.90
2018-07-19T00:14:00.869Z,99.90
2018-07-19T00:16:30.238Z,99.90
2018-07-19T00:18:59.674Z,99.90
2018-07-19T00:21:29.056Z,99.90
2018-07-19T00:23:58.463Z,99.90
2018-07-19T00:26:27.868Z,99.90
2018-07-19T00:28:57.342Z,99.90
2018-07-19T00:31:27.525Z,99.90
2018-07-19T00:33:56.886Z,99.90
2018-07-19T00:36:26.253Z,99.90
2018-07-19T00:38:55.686Z,99.90
2018-07-19T00:41:25.058Z,99.90
2018-07-19T00:43:54.609Z,99.90
2018-07-19T00:46:23.991Z,99.90
2018-07-19T00:48:53.495Z,99.90
2018-07-19T00:51:22.935Z,99.90
2018-07-19T00:53:52.408Z,99.90
2018-07-19T00:56:22.154Z,99.90
2018-07-19T00:58:52.572Z,99.90
2018-07-19T01:01:22.078Z,99.90
2018-07-19T01:03:51.594Z,99.90
2018-07-19T01:06:21.026Z,99.90
2018-07-19T01:08:50.389Z,99.90
2018-07-19T01:11:19.769Z,99.90
2018-07-19T01:13:49.142Z,99.90
2018-07-19T01:16:18.785Z,99.90
2018-07-19T01:18:48.127Z,99.90
2018-07-19T01:21:17.572Z,99.90
2018-07-19T01:23:46.905Z,99.90
2018-07-19T01:26:16.329Z,99.90
2018-07-19T01:28:45.884Z,99.90
2018-07-19T01:31:15.411Z,99.90
2018-07-19T01:33:45.003Z,99.90
2018-07-19T01:36:14.511Z,99.90
2018-07-19T01:38:43.888Z,99.90
2018-07-19T01:41:24.688Z,99.90
2018-07-19T01:43:54.225Z,99.90
2018-07-19T01:46:23.604Z,99.90
2018-07-19T01:48:52.996Z,99.90
2018-07-19T01:51:22.754Z,99.90
2018-07-19T01:56:21.159Z,99.90
2018-07-19T01:58:50.637Z,99.90
2018-07-19T02:03:49.159Z,99.90
2018-07-19T02:06:18.630Z,99.90
2018-07-19T02:08:48.034Z,99.90
2018-07-19T02:11:17.430Z,99.90
2018-07-19T02:16:15.655Z,99.90
2018-07-19T02:18:45.052Z,99.90
2018-07-19T02:21:14.416Z,99.90
2018-07-19T02:23:43.796Z,99.90
2018-07-19T02:26:13.346Z,99.90
2018-07-19T02:28:42.745Z,99.90
2018-07-19T02:31:12.116Z,99.90
2018-07-19T02:33:41.521Z,99.90
2018-07-19T02:36:10.953Z,99.90
2018-07-19T02:38:40.339Z,99.90
2018-07-19T02:41:10.018Z,99.90
2018-07-19T02:43:39.385Z,99.90
2018-07-19T02:46:08.798Z,99.90
2018-07-19T02:48:38.412Z,99.90
2018-07-19T02:51:07.796Z,99.90
2018-07-19T02:53:37.364Z,99.90
2018-07-19T02:56:06.711Z,99.90
2018-07-19T02:58:36.084Z,99.90
2018-07-19T03:01:06.190Z,99.90
2018-07-19T03:03:35.688Z,99.90
2018-07-19T03:06:05.313Z,99.90
2018-07-19T03:11:03.735Z,99.90
2018-07-19T03:13:33.098Z,99.90
2018-07-19T03:16:02.681Z,99.90
2018-07-19T03:18:32.175Z,99.90
2018-07-19T03:21:02.009Z,99.90
2018-07-19T03:23:31.535Z,99.90
2018-07-19T03:28:29.946Z,99.90
2018-07-19T03:33:28.286Z,99.90
2018-07-19T03:35:57.729Z,99.90
2018-07-19T03:38:27.125Z,99.90
2018-07-19T03:40:56.570Z,99.90
2018-07-19T03:43:25.974Z,99.90
2018-07-19T03:45:55.320Z,99.90
2018-07-19T03:48:24.938Z,99.90
2018-07-19T03:50:54.371Z,99.90
2018-07-19T03:53:24.466Z,99.90
2018-07-19T03:55:53.908Z,99.90
2018-07-19T03:58:23.507Z,99.90
2018-07-19T04:00:52.841Z,99.90
2018-07-19T04:03:22.219Z,99.90
2018-07-19T04:05:51.932Z,99.90
2018-07-19T04:08:21.280Z,99.90
2018-07-19T04:10:50.740Z,99.90
2018-07-19T04:13:20.257Z,99.90
2018-07-19T04:15:49.807Z,99.90
2018-07-19T04:18:19.180Z,99.90
2018-07-19T04:20:55.321Z,99.90
2018-07-19T04:23:24.872Z,99.90
2018-07-19T04:25:54.305Z,99.90
2018-07-19T04:28:23.738Z,99.90
2018-07-19T04:30:53.247Z,99.90
2018-07-19T04:33:22.651Z,99.90
2018-07-19T04:35:52.033Z,99.90
2018-07-19T04:38:21.220Z,99.90
2018-07-19T04:40:50.568Z,99.90
2018-07-19T04:43:20.480Z,99.90
2018-07-19T04:45:49.985Z,99.90
2018-07-19T04:48:19.532Z,99.90
2018-07-19T04:50:48.865Z,99.90
2018-07-19T04:53:18.320Z,99.90
2018-07-19T04:55:47.671Z,99.90
2018-07-19T04:58:17.490Z,99.90
2018-07-19T05:00:47.065Z,99.90
2018-07-19T05:03:16.495Z,99.90
2018-07-19T05:05:45.902Z,99.90
2018-07-19T05:08:15.435Z,99.90
2018-07-19T05:10:44.931Z,99.90
2018-07-19T05:13:14.420Z,99.90
2018-07-19T05:15:43.947Z,99.90
2018-07-19T05:18:13.384Z,99.90
2018-07-19T05:20:42.851Z,99.90
2018-07-19T05:23:12.363Z,99.90
2018-07-19T05:25:41.776Z,99.90
2018-07-19T05:28:11.199Z,99.90
2018-07-19T05:30:40.602Z,99.90
2018-07-19T05:33:10.025Z,99.90
2018-07-19T05:35:39.412Z,99.90
2018-07-19T05:40:37.713Z,99.90
2018-07-19T05:43:07.450Z,99.90
2018-07-19T05:45:36.801Z,99.90
2018-07-19T05:48:06.192Z,99.90
2018-07-19T05:50:35.681Z,99.90
2018-07-19T05:53:05.142Z,99.90
2018-07-19T05:55:34.494Z,99.90
2018-07-19T05:58:03.963Z,99.90
2018-07-19T06:00:33.402Z,99.90
2018-07-19T06:03:02.782Z,99.90
2018-07-19T06:05:32.220Z,99.90
2018-07-19T06:08:01.659Z,99.90
2018-07-19T06:10:31.056Z,99.90
2018-07-19T06:13:00.471Z,99.90
2018-07-19T06:15:29.891Z,99.90
2018-07-19T06:17:59.232Z,99.90
2018-07-19T06:20:29.829Z,99.90
2018-07-19T06:22:59.287Z,99.90
2018-07-19T06:25:28.705Z,99.90
2018-07-19T06:27:58.071Z,99.90
2018-07-19T06:30:27.459Z,99.90
2018-07-19T06:32:56.838Z,99.90
2018-07-19T06:35:26.216Z,99.90
2018-07-19T06:37:55.685Z,99.90
2018-07-19T06:40:25.170Z,99.90
2018-07-19T06:42:54.671Z,99.90
2018-07-19T06:45:24.137Z,99.90
2018-07-19T06:47:53.576Z,99.10
2018-07-19T06:52:51.965Z,95.10
2018-07-19T06:55:21.466Z,92.90
2018-07-19T06:57:50.963Z,93.90
2018-07-19T07:00:20.462Z,91.40
2018-07-19T07:02:49.886Z,79.90
2018-07-19T07:05:19.317Z,79.00
2018-07-19T07:07:48.688Z,79.30
2018-07-19T07:10:18.155Z,80.50
2018-07-19T07:12:47.569Z,80.40
2018-07-19T07:15:16.941Z,78.60
2018-07-19T07:17:46.401Z,76.90
2018-07-19T07:20:15.766Z,78.50
2018-07-19T07:22:45.413Z,80.50
2018-07-19T07:25:15.866Z,82.30
2018-07-19T07:27:45.409Z,82.40
2018-07-19T07:30:15.013Z,77.20
2018-07-19T07:32:44.443Z,73.60
2018-07-19T07:35:13.861Z,75.40
2018-07-19T07:37:43.286Z,76.10
2018-07-19T07:40:12.869Z,81.20
2018-07-19T07:42:43.902Z,66.00
2018-07-19T07:45:13.358Z,59.80
2018-07-19T07:47:42.816Z,59.40
2018-07-19T07:50:12.324Z,59.70
2018-07-19T07:52:41.900Z,58.50
2018-07-19T07:55:11.436Z,61.20
2018-07-19T07:57:41.487Z,56.70
2018-07-19T08:00:11.061Z,55.40
2018-07-19T08:02:40.502Z,56.30
2018-07-19T08:05:10.133Z,57.60
2018-07-19T08:07:39.650Z,60.70
2018-07-19T08:10:09.214Z,55.70
2018-07-19T08:12:38.848Z,52.30
2018-07-19T08:15:08.960Z,49.90
2018-07-19T08:17:39.712Z,49.30
2018-07-19T08:20:09.352Z,49.60
2018-07-19T08:22:38.802Z,50.00
2018-07-19T08:25:08.651Z,50.60
2018-07-19T08:27:38.343Z,49.40
2018-07-19T08:30:07.411Z,49.90
2018-07-19T08:35:06.258Z,49.20
2018-07-19T08:37:35.737Z,51.90
2018-07-19T08:40:05.257Z,54.30
2018-07-19T08:42:35.954Z,53.80
2018-07-19T08:45:06.559Z,53.40
2018-07-19T08:47:35.926Z,48.00
2018-07-19T08:50:06.184Z,48.10
2018-07-19T08:52:35.653Z,47.30
2018-07-19T08:55:05.399Z,49.00
2018-07-19T08:57:34.906Z,48.70
2018-07-19T09:00:04.934Z,48.00
2018-07-19T09:05:03.777Z,46.70
2018-07-19T09:07:33.453Z,48.30
2018-07-19T09:10:03.020Z,47.90
2018-07-19T09:12:32.618Z,48.10
2018-07-19T09:15:02.112Z,50.50
2018-07-19T09:17:32.510Z,51.00
2018-07-19T09:20:02.106Z,51.60
2018-07-19T09:25:00.729Z,46.90
2018-07-19T09:27:30.319Z,46.10
2018-07-19T09:29:59.843Z,44.50
2018-07-19T09:32:29.590Z,46.10
2018-07-19T09:34:59.227Z,45.20
2018-07-19T09:37:29.686Z,49.30
2018-07-19T09:39:59.218Z,47.80
2018-07-19T09:42:28.876Z,45.80
2018-07-19T09:47:27.603Z,50.40
2018-07-19T09:49:56.945Z,52.70
2018-07-19T09:52:26.570Z,50.00
2018-07-19T09:59:56.944Z,47.20
2018-07-19T10:02:26.511Z,47.30
2018-07-19T10:04:56.165Z,47.10
2018-07-19T10:07:25.653Z,48.90
2018-07-19T10:09:55.059Z,50.60
2018-07-19T10:12:24.429Z,50.60
2018-07-19T10:14:54.482Z,50.00
2018-07-19T10:17:23.908Z,49.60
2018-07-19T10:19:54.599Z,45.50
2018-07-19T10:22:24.043Z,44.30
2018-07-19T10:24:53.382Z,44.00
2018-07-19T10:27:22.808Z,43.30
2018-07-19T10:29:52.409Z,42.40
2018-07-19T10:32:21.861Z,41.00
2018-07-19T10:34:51.222Z,40.30
2018-07-19T10:37:20.821Z,42.60
2018-07-19T10:39:50.417Z,42.40
2018-07-19T10:42:20.389Z,42.30
2018-07-19T10:44:49.942Z,39.60
2018-07-19T10:47:19.371Z,37.70
2018-07-19T10:52:18.112Z,36.40
2018-07-19T10:54:48.280Z,37.10
2018-07-19T10:57:17.857Z,37.90
2018-07-19T10:59:47.364Z,38.00
2018-07-19T11:02:16.867Z,40.90
2018-07-19T11:04:46.276Z,41.80
2018-07-19T11:07:15.884Z,39.30
2018-07-19T11:09:45.534Z,38.50
2018-07-19T11:12:14.934Z,36.80
2018-07-19T11:14:44.343Z,37.70
2018-07-19T11:17:14.619Z,37.40
2018-07-19T11:19:44.196Z,35.20
2018-07-19T11:22:13.686Z,34.90
2018-07-19T11:24:43.251Z,37.10
2018-07-19T11:27:12.841Z,37.60
2018-07-19T11:29:42.446Z,35.00
2018-07-19T11:32:11.839Z,35.90
2018-07-19T11:34:42.280Z,35.10
2018-07-19T11:37:11.666Z,35.30
2018-07-19T11:39:41.089Z,33.90
2018-07-19T11:42:11.104Z,34.60
2018-07-19T11:44:40.490Z,35.70
2018-07-19T11:47:10.014Z,35.00
2018-07-19T11:49:39.379Z,36.30
2018-07-19T11:52:08.811Z,34.90
2018-07-19T11:54:38.225Z,36.00
2018-07-19T11:57:07.945Z,35.20
2018-07-19T11:59:37.429Z,34.80
2018-07-19T12:02:06.810Z,35.70
2018-07-19T12:04:36.282Z,35.80
2018-07-19T12:07:05.770Z,36.50
2018-07-19T12:09:35.156Z,34.70
2018-07-19T12:12:04.673Z,36.40
2018-07-19T12:14:34.260Z,37.90
2018-07-19T12:17:03.679Z,38.30
2018-07-19T12:19:33.137Z,38.70
2018-07-19T12:22:03.115Z,36.50
2018-07-19T12:24:32.571Z,36.10
2018-07-19T12:27:01.992Z,34.30
2018-07-19T12:29:31.471Z,35.60
2018-07-19T12:32:00.866Z,34.70
2018-07-19T12:34:31.251Z,36.50
2018-07-19T12:37:01.678Z,37.30
2018-07-19T12:39:31.851Z,36.60
2018-07-19T12:42:01.331Z,37.40
2018-07-19T12:44:31.261Z,37.30
2018-07-19T12:47:00.779Z,37.30
2018-07-19T12:49:30.936Z,37.10
2018-07-19T12:52:01.457Z,37.00
2018-07-19T12:54:30.835Z,34.70
2018-07-19T12:57:00.575Z,33.70
2018-07-19T12:59:29.865Z,33.00
2018-07-19T13:01:59.358Z,35.40
2018-07-19T13:04:28.506Z,35.90
2018-07-19T13:09:26.617Z,34.40
2018-07-19T13:11:56.885Z,34.20
2018-07-19T13:14:27.652Z,34.50
2018-07-19T13:19:26.336Z,33.60
2018-07-19T13:21:56.165Z,33.70
2018-07-19T13:24:25.832Z,33.60
2018-07-19T13:26:55.484Z,33.00
2018-07-19T13:29:25.035Z,32.90
2018-07-19T13:31:54.670Z,33.00
2018-07-19T13:34:24.209Z,33.10
2018-07-19T13:36:53.637Z,33.30
2018-07-19T13:39:23.084Z,32.50
2018-07-19T13:41:52.670Z,33.10
2018-07-19T13:44:22.213Z,34.00
2018-07-19T13:49:27.763Z,31.80
2018-07-19T13:51:57.143Z,32.00
2018-07-19T13:54:37.860Z,33.80
2018-07-19T13:57:07.384Z,35.00
2018-07-19T13:59:36.841Z,34.30
2018-07-19T14:07:04.747Z,34.90
2018-07-19T14:09:34.364Z,35.60
2018-07-19T14:12:05.032Z,33.30
2018-07-19T14:17:05.136Z,32.00
2018-07-19T14:24:34.677Z,32.40
2018-07-19T14:27:04.311Z,32.10
2018-07-19T14:29:33.783Z,32.20
2018-07-19T14:34:32.500Z,32.80
2018-07-19T14:37:01.974Z,31.80
2018-07-19T14:39:31.591Z,31.50
2018-07-19T14:42:02.275Z,31.70
2018-07-19T14:44:31.632Z,32.40
2018-07-19T14:47:01.260Z,31.30
2018-07-19T14:49:30.780Z,32.50
2018-07-19T14:52:00.330Z,31.60
2018-07-19T14:54:30.495Z,31.60
2018-07-19T14:57:00.043Z,31.80
2018-07-19T14:59:29.445Z,32.80
2018-07-19T15:01:58.968Z,31.70
2018-07-19T15:04:28.453Z,31.60
2018-07-19T15:06:58.235Z,32.40
2018-07-19T15:09:27.788Z,31.20
2018-07-19T15:11:57.224Z,33.10
2018-07-19T15:14:26.705Z,32.20
2018-07-19T15:16:56.306Z,31.80
2018-07-19T15:19:25.924Z,31.20
2018-07-19T15:21:55.498Z,32.40
2018-07-19T15:24:25.103Z,33.30
2018-07-19T15:26:54.631Z,32.80
2018-07-19T15:29:23.982Z,32.70
2018-07-19T15:31:53.416Z,32.10
2018-07-19T15:34:22.907Z,32.30
2018-07-19T15:36:52.507Z,32.70
2018-07-19T15:39:22.458Z,32.80
2018-07-19T15:41:52.334Z,32.80
2018-07-19T15:44:21.927Z,33.90
2018-07-19T15:46:52.218Z,33.40
2018-07-19T15:49:21.697Z,33.40
2018-07-19T15:51:51.072Z,33.00
2018-07-19T15:54:20.500Z,32.30
2018-07-19T15:56:49.950Z,32.50
2018-07-19T16:01:48.280Z,33.50
2018-07-19T16:04:17.654Z,32.90
2018-07-19T16:09:16.306Z,33.20
2018-07-19T16:11:45.668Z,32.80
2018-07-19T16:14:15.192Z,33.30
2018-07-19T16:16:44.577Z,32.50
2018-07-19T16:19:14.017Z,32.60
2018-07-19T16:21:45.250Z,32.80
2018-07-19T16:24:15.865Z,32.20
2018-07-19T16:26:45.303Z,32.40
2018-07-19T16:29:14.710Z,32.50
2018-07-19T16:31:44.922Z,32.70
2018-07-19T16:34:14.326Z,33.00
2018-07-19T16:36:43.784Z,32.90
2018-07-19T16:39:13.552Z,33.20
2018-07-19T16:41:43.013Z,33.20
2018-07-19T16:44:12.529Z,33.10
2018-07-19T16:46:42.053Z,33.40
2018-07-19T16:49:11.554Z,33.60
2018-07-19T16:51:41.073Z,33.60
2018-07-19T16:54:11.100Z,33.50
2018-07-19T16:56:40.916Z,33.50
2018-07-19T16:59:10.339Z,33.50
2018-07-19T17:04:08.604Z,33.10
2018-07-19T17:06:38.042Z,33.60
2018-07-19T17:09:11.015Z,33.70
2018-07-19T17:14:09.905Z,33.70
2018-07-19T17:16:39.363Z,33.60
2018-07-19T17:19:08.740Z,33.70
2018-07-19T17:21:39.100Z,34.00
2018-07-19T17:24:09.752Z,34.20
2018-07-19T17:26:39.160Z,34.70
2018-07-19T17:29:08.787Z,34.70
2018-07-19T17:31:38.349Z,35.10
2018-07-19T17:34:08.592Z,35.00
2018-07-19T17:36:38.268Z,35.20
2018-07-19T17:39:10.663Z,35.80
2018-07-19T17:41:40.433Z,35.50
2018-07-19T17:44:10.498Z,36.60
2018-07-19T17:46:39.982Z,36.40
2018-07-19T17:49:09.406Z,37.00
2018-07-19T17:51:38.909Z,37.60
2018-07-19T17:54:09.258Z,37.90
2018-07-19T17:56:38.889Z,38.20
2018-07-19T17:59:08.452Z,38.40
2018-07-19T18:01:38.265Z,39.00
2018-07-19T18:04:07.976Z,38.60
2018-07-19T18:06:37.472Z,39.10
2018-07-19T18:09:09.497Z,39.50
2018-07-19T18:11:39.155Z,40.50
2018-07-19T18:14:08.937Z,40.60
2018-07-19T18:16:38.507Z,40.80
2018-07-19T18:19:08.591Z,41.40
2018-07-19T18:21:38.303Z,41.80
2018-07-19T18:24:07.872Z,42.00
2018-07-19T18:26:37.418Z,42.10
2018-07-19T18:29:07.397Z,42.50
2018-07-19T18:31:36.823Z,42.20
2018-07-19T18:34:06.455Z,41.90
2018-07-19T18:36:35.937Z,41.60
2018-07-19T18:39:08.860Z,41.70
2018-07-19T18:41:38.342Z,41.10
2018-07-19T18:44:08.424Z,41.00
2018-07-19T18:46:38.581Z,41.10
2018-07-19T18:49:08.050Z,40.90
2018-07-19T18:51:37.542Z,41.10
2018-07-19T18:54:06.997Z,41.30
2018-07-19T18:56:36.531Z,41.80
2018-07-19T19:01:35.135Z,41.40
2018-07-19T19:04:04.660Z,41.30
2018-07-19T19:06:34.301Z,41.20
2018-07-19T19:09:03.868Z,41.90
2018-07-19T19:11:33.411Z,44.40
2018-07-19T19:14:03.594Z,47.70
2018-07-19T19:16:33.035Z,46.90
2018-07-19T19:19:02.643Z,45.00
2018-07-19T19:21:32.303Z,46.70
2018-07-19T19:24:01.949Z,48.80
2018-07-19T19:26:31.409Z,47.20
2018-07-19T19:29:00.928Z,49.00
2018-07-19T19:33:59.516Z,54.70
2018-07-19T19:36:29.056Z,55.70
2018-07-19T19:38:58.612Z,56.50
2018-07-19T19:41:28.001Z,56.70
2018-07-19T19:43:57.496Z,57.60
2018-07-19T19:46:26.985Z,55.20
2018-07-19T19:48:56.396Z,52.30
2018-07-19T19:51:25.881Z,51.10
2018-07-19T19:53:55.349Z,52.10
2018-07-19T19:56:24.728Z,55.40
2018-07-19T19:58:54.124Z,57.50
2018-07-19T20:01:24.697Z,62.60
2018-07-19T20:03:54.203Z,62.80
2018-07-19T20:06:23.572Z,62.10
2018-07-19T20:08:53.067Z,58.80
2018-07-19T20:11:22.464Z,56.80
2018-07-19T20:13:51.814Z,59.60
2018-07-19T20:16:21.276Z,59.30
2018-07-19T20:18:51.060Z,60.90
2018-07-19T20:21:20.426Z,60.20
2018-07-19T20:31:17.603Z,62.30
2018-07-19T20:33:47.086Z,62.10
2018-07-19T20:36:16.559Z,61.80
2018-07-19T20:38:45.955Z,65.40
2018-07-19T20:41:15.323Z,66.70
2018-07-19T20:43:44.736Z,67.90
2018-07-19T20:46:14.139Z,66.40
2018-07-19T20:48:43.556Z,72.50
2018-07-19T20:51:13.170Z,70.70
2018-07-19T20:53:42.519Z,69.00
2018-07-19T20:56:12.004Z,75.10
2018-07-19T20:58:41.487Z,70.70
2018-07-19T21:01:10.889Z,76.80
2018-07-19T21:03:40.450Z,70.90
2018-07-19T21:06:09.955Z,71.50
2018-07-19T21:08:39.387Z,71.30
2018-07-19T21:13:37.702Z,74.00
2018-07-19T21:16:07.219Z,75.80
2018-07-19T21:18:36.596Z,77.50
2018-07-19T21:21:06.219Z,79.70
2018-07-19T21:23:35.832Z,78.10
2018-07-19T21:26:05.486Z,78.40
2018-07-19T21:28:34.919Z,84.10
2018-07-19T21:31:04.346Z,88.20
2018-07-19T21:33:33.739Z,90.10
2018-07-19T21:36:03.252Z,89.60
2018-07-19T21:38:32.722Z,90.10
2018-07-19T21:48:28.675Z,89.60
2018-07-19T21:53:27.070Z,91.00
2018-07-19T21:58:25.421Z,92.10
2018-07-19T22:00:59.985Z,92.30
2018-07-19T22:05:58.406Z,93.10
2018-07-19T22:08:27.851Z,93.30
2018-07-19T22:10:57.381Z,93.60
2018-07-19T22:13:27.176Z,94.30
2018-07-19T22:15:56.786Z,95.10
2018-07-19T22:18:26.439Z,95.70
2018-07-19T22:20:56.504Z,95.80
2018-07-19T22:23:26.050Z,95.90
2018-07-19T22:25:55.499Z,95.90
2018-07-19T22:28:25.528Z,95.80
2018-07-19T22:30:54.928Z,95.90
2018-07-19T22:33:24.346Z,96.30
2018-07-19T22:35:53.943Z,97.00
2018-07-19T22:38:24.571Z,97.30
2018-07-19T22:40:54.046Z,97.00
2018-07-19T22:43:23.734Z,97.30
2018-07-19T22:48:22.703Z,98.20
2018-07-19T22:50:52.297Z,98.40
2018-07-19T22:53:21.769Z,98.30
2018-07-19T22:55:51.110Z,98.40
2018-07-19T22:58:20.604Z,98.70
2018-07-19T23:00:50.733Z,99.10
2018-07-19T23:03:21.379Z,99.70
2018-07-19T23:05:51.000Z,99.80
2018-07-19T23:08:20.449Z,99.90
2018-07-19T23:10:49.987Z,99.90
2018-07-19T23:13:19.388Z,99.90
2018-07-19T23:15:48.856Z,99.90
2018-07-19T23:18:18.493Z,99.90
2018-07-19T23:20:47.988Z,99.90
2018-07-19T23:23:17.510Z,99.90
2018-07-19T23:25:47.014Z,99.90
2018-07-19T23:28:16.652Z,99.90
2018-07-19T23:30:46.902Z,99.90
2018-07-19T23:33:16.631Z,99.90
2018-07-19T23:35:52.249Z,99.90
2018-07-19T23:40:58.982Z,99.90
2018-07-19T23:43:32.442Z,99.90
2018-07-19T23:46:06.305Z,99.90
2018-07-19T23:48:36.023Z,99.90
2018-07-19T23:51:05.427Z,99.90
2018-07-19T23:53:35.041Z,99.90
2018-07-19T23:56:04.436Z,99.90
2018-07-19T23:58:33.958Z,99.90
